Time;durP1;ratioP1;P1;durP2;ratioP2;P2;SDS_P1;SDS_P2;PMS_P1;PMS_P2;Temp;Humidity;BMP_temperature;BMP_pressure;BME280_temperature;BME280_humidity;BME280_pressure;Samples;Min_cycle;Max_cycle;Signal;HPM_P1;HPM_P2
2023/08/29 00:00:24;;;;;;;1.20;1.00;;;22.60;62.60;;;;;;6197553;28;20026;-70
2023/08/29 00:03:28;;;;;;;1.08;0.85;;;22.60;62.60;;;;;;6197558;28;20402;-70
2023/08/29 00:06:28;;;;;;;0.60;0.60;;;22.60;63.50;;;;;;6196780;28;20389;-70
2023/08/29 00:09:29;;;;;;;0.73;0.55;;;22.60;62.70;;;;;;6197347;28;20057;-70
2023/08/29 00:12:31;;;;;;;0.93;0.60;;;22.70;62.80;;;;;;6196757;28;20385;-70
2023/08/29 00:15:32;;;;;;;1.13;0.90;;;22.60;62.70;;;;;;6197148;28;20470;-70
2023/08/29 00:18:33;;;;;;;0.80;0.60;;;22.60;62.70;;;;;;6196966;28;20104;-70
2023/08/29 00:21:33;;;;;;;1.58;0.80;;;22.60;62.70;;;;;;6196717;28;20380;-70
2023/08/29 00:24:34;;;;;;;1.10;0.73;;;22.60;62.70;;;;;;6196545;28;20027;-70
2023/08/29 00:27:34;;;;;;;0.95;0.70;;;22.70;62.80;;;;;;6196968;28;20065;-70
2023/08/29 00:30:36;;;;;;;0.80;0.60;;;22.70;62.90;;;;;;6196315;28;20026;-70
2023/08/29 00:33:37;;;;;;;0.70;0.57;;;22.60;62.70;;;;;;6196445;28;20384;-70
2023/08/29 00:36:38;;;;;;;0.65;0.47;;;22.60;62.70;;;;;;6196268;28;20022;-70
2023/08/29 00:39:38;;;;;;;0.65;0.65;;;22.60;62.70;;;;;;6196357;28;20034;-70
2023/08/29 00:42:39;;;;;;;0.75;0.60;;;22.60;62.80;;;;;;6196089;28;20026;-70
2023/08/29 00:45:40;;;;;;;0.70;0.50;;;22.60;62.80;;;;;;6196271;28;20106;-70
2023/08/29 00:48:42;;;;;;;0.70;0.60;;;22.60;62.90;;;;;;6196216;28;20034;-70
2023/08/29 00:51:43;;;;;;;0.60;0.50;;;22.60;62.80;;;;;;6196119;28;20022;-70
2023/08/29 00:54:43;;;;;;;0.50;0.50;;;22.60;62.80;;;;;;6195395;28;20058;-70
2023/08/29 00:57:44;;;;;;;1.15;0.57;;;22.60;62.80;;;;;;6195319;28;20065;-71
2023/08/29 01:00:46;;;;;;;0.47;0.45;;;22.60;62.90;;;;;;6195471;28;20030;-70
2023/08/29 01:03:47;;;;;;;0.75;0.60;;;22.60;62.90;;;;;;6194813;28;20073;-70
2023/08/29 01:06:48;;;;;;;0.82;0.57;;;22.60;62.90;;;;;;6195410;28;20489;-71
2023/08/29 01:09:49;;;;;;;1.20;0.70;;;22.60;63.70;;;;;;6195154;28;20185;-70
2023/08/29 01:13:01;;;;;;;1.85;0.70;;;22.60;62.90;;;;;;6195505;28;20749;-70
2023/08/29 01:16:07;;;;;;;0.60;0.52;;;22.60;62.90;;;;;;6195422;28;20034;-70
2023/08/29 01:19:13;;;;;;;0.55;0.50;;;22.60;62.90;;;;;;6196618;28;20034;-70
2023/08/29 01:22:37;;;;;;;0.60;0.60;;;22.60;62.90;;;;;;6195754;28;20021;-70
2023/08/29 01:26:05;;;;;;;0.70;0.70;;;22.60;62.90;;;;;;6178361;28;20061;-69
2023/08/29 01:29:06;;;;;;;0.70;0.57;;;22.60;63.00;;;;;;6195655;28;20081;-70
2023/08/29 01:32:07;;;;;;;1.00;0.73;;;22.60;63.00;;;;;;6196129;28;20034;-70
2023/08/29 01:35:10;;;;;;;0.70;0.60;;;22.60;63.00;;;;;;6194883;28;20018;-70
2023/08/29 01:38:11;;;;;;;0.75;0.60;;;22.60;62.90;;;;;;6195389;28;20501;-70
2023/08/29 01:41:11;;;;;;;0.55;0.50;;;22.60;63.80;;;;;;6195397;28;20018;-69
2023/08/29 01:44:12;;;;;;;1.13;0.45;;;22.60;63.00;;;;;;6194995;28;20030;-70
2023/08/29 01:47:13;;;;;;;0.80;0.50;;;22.60;63.00;;;;;;6194711;28;20698;-70
2023/08/29 01:50:14;;;;;;;0.70;0.57;;;22.60;63.00;;;;;;6194320;28;20026;-70
2023/08/29 01:53:14;;;;;;;0.40;0.40;;;22.60;63.00;;;;;;6195025;28;20393;-69
2023/08/29 01:56:16;;;;;;;0.40;0.40;;;22.60;63.00;;;;;;6194739;28;20034;-70
2023/08/29 01:59:18;;;;;;;0.73;0.60;;;22.60;63.00;;;;;;6194111;28;20018;-70
2023/08/29 02:02:20;;;;;;;0.88;0.68;;;22.60;63.00;;;;;;6194841;28;20037;-70
2023/08/29 02:05:20;;;;;;;0.50;0.40;;;22.60;63.00;;;;;;6194422;28;20034;-70
2023/08/29 02:08:21;;;;;;;0.47;0.47;;;22.60;63.00;;;;;;6194932;28;20031;-69
2023/08/29 02:11:21;;;;;;;0.40;0.40;;;22.60;63.00;;;;;;6194061;28;20054;-70
2023/08/29 02:14:22;;;;;;;0.57;0.52;;;22.60;63.40;;;;;;6194727;28;20064;-70
2023/08/29 02:17:23;;;;;;;0.60;0.50;;;22.60;63.00;;;;;;6193961;28;20045;-70
2023/08/29 02:20:23;;;;;;;0.60;0.43;;;22.60;63.00;;;;;;6193612;28;20031;-70
2023/08/29 02:23:24;;;;;;;0.82;0.50;;;22.60;63.10;;;;;;6194807;28;20053;-70
2023/08/29 02:26:24;;;;;;;1.55;0.40;;;22.60;63.10;;;;;;6194675;28;20472;-70
2023/08/29 02:29:25;;;;;;;0.93;0.70;;;22.60;63.00;;;;;;6194759;28;20034;-70
2023/08/29 02:32:26;;;;;;;0.50;0.50;;;22.60;63.10;;;;;;6194826;28;20014;-70
2023/08/29 02:35:26;;;;;;;0.55;0.50;;;22.60;63.10;;;;;;6194433;28;20586;-70
2023/08/29 02:38:27;;;;;;;0.55;0.50;;;22.60;63.10;;;;;;6197570;28;20388;-70
2023/08/29 02:41:27;;;;;;;0.60;0.60;;;22.60;63.10;;;;;;6198904;28;20022;-70
2023/08/29 02:44:28;;;;;;;0.70;0.60;;;22.60;63.10;;;;;;6199215;28;20065;-71
2023/08/29 02:47:29;;;;;;;1.02;0.80;;;22.60;63.10;;;;;;6198715;28;20026;-70
2023/08/29 02:50:29;;;;;;;0.57;0.50;;;22.60;63.10;;;;;;6199042;28;20030;-70
2023/08/29 02:53:30;;;;;;;0.77;0.60;;;22.60;63.10;;;;;;6198656;28;20425;-70
2023/08/29 02:56:30;;;;;;;0.63;0.60;;;22.60;63.10;;;;;;6198072;28;20046;-70
2023/08/29 02:59:31;;;;;;;0.30;0.30;;;22.60;63.10;;;;;;6197122;28;20041;-70
2023/08/29 03:02:32;;;;;;;0.40;0.40;;;22.60;63.10;;;;;;6198580;28;20053;-70
2023/08/29 03:05:33;;;;;;;0.38;0.30;;;22.60;63.10;;;;;;6198638;28;20466;-70
2023/08/29 03:08:33;;;;;;;0.50;0.50;;;22.60;63.10;;;;;;6198220;28;20042;-70
2023/08/29 03:11:34;;;;;;;0.40;0.40;;;22.60;63.10;;;;;;6198813;28;20505;-70
2023/08/29 03:14:36;;;;;;;0.32;0.30;;;22.60;63.10;;;;;;6199166;28;20050;-71
2023/08/29 03:17:36;;;;;;;1.30;0.60;;;22.60;63.10;;;;;;6198255;28;20052;-70
2023/08/29 03:20:44;;;;;;;0.50;0.40;;;22.60;63.10;;;;;;6198512;28;20035;-70
2023/08/29 03:23:44;;;;;;;0.60;0.47;;;22.60;63.10;;;;;;6198306;28;20539;-70
2023/08/29 03:26:45;;;;;;;0.50;0.50;;;22.60;63.20;;;;;;6198349;28;20026;-70
2023/08/29 03:29:46;;;;;;;0.80;0.40;;;22.60;63.10;;;;;;6197863;28;20106;-70
2023/08/29 03:32:49;;;;;;;0.57;0.43;;;22.60;63.10;;;;;;6198215;28;20421;-70
2023/08/29 03:35:59;;;;;;;0.30;0.30;;;22.60;63.20;;;;;;6197737;28;20018;-70
2023/08/29 03:38:59;;;;;;;0.57;0.50;;;22.60;63.20;;;;;;6197988;28;20562;-71
2023/08/29 03:42:00;;;;;;;0.38;0.38;;;22.60;63.20;;;;;;6197890;28;20080;-70
2023/08/29 03:45:00;;;;;;;0.55;0.55;;;22.60;63.20;;;;;;6197757;28;20018;-70
2023/08/29 03:48:01;;;;;;;0.40;0.35;;;22.60;63.20;;;;;;6197810;28;20230;-70
2023/08/29 03:51:05;;;;;;;0.50;0.47;;;22.60;63.30;;;;;;6196721;28;20473;-70
2023/08/29 03:54:06;;;;;;;0.45;0.40;;;22.60;63.30;;;;;;6197454;28;20022;-70
2023/08/29 03:57:07;;;;;;;0.60;0.50;;;22.60;63.20;;;;;;6196988;28;20117;-71
2023/08/29 04:00:42;;;;;;;0.55;0.47;;;22.60;63.30;;;;;;6197202;28;20018;-70
2023/08/29 04:03:43;;;;;;;0.50;0.50;;;22.60;63.30;;;;;;6176768;28;20022;-70
2023/08/29 04:06:44;;;;;;;0.75;0.60;;;22.60;63.30;;;;;;6196956;28;20114;-70
2023/08/29 04:09:44;;;;;;;0.30;0.30;;;22.60;63.30;;;;;;6196788;28;20050;-71
2023/08/29 04:12:45;;;;;;;0.70;0.50;;;22.60;63.30;;;;;;6196746;28;20124;-70
2023/08/29 04:15:45;;;;;;;0.50;0.40;;;22.60;63.30;;;;;;6196835;28;20033;-71
2023/08/29 04:18:46;;;;;;;0.47;0.40;;;22.60;63.30;;;;;;6196438;28;20034;-70
2023/08/29 04:21:47;;;;;;;0.30;0.30;;;22.60;63.30;;;;;;6196765;28;20506;-70
2023/08/29 04:24:48;;;;;;;0.50;0.50;;;22.60;63.40;;;;;;6198826;28;20031;-70
2023/08/29 04:27:50;;;;;;;0.40;0.40;;;22.60;63.30;;;;;;6196506;28;20027;-70
2023/08/29 04:30:51;;;;;;;0.40;0.40;;;22.60;63.30;;;;;;6196396;28;20033;-70
2023/08/29 04:33:51;;;;;;;0.40;0.40;;;22.60;63.30;;;;;;6196432;28;20023;-71
2023/08/29 04:36:52;;;;;;;0.28;0.28;;;22.60;63.30;;;;;;6195624;28;20027;-70
2023/08/29 04:39:52;;;;;;;0.70;0.50;;;22.60;63.30;;;;;;6196040;28;20030;-70
2023/08/29 04:42:53;;;;;;;0.40;0.30;;;22.60;63.30;;;;;;6196016;28;20118;-70
2023/08/29 04:45:53;;;;;;;0.45;0.43;;;22.60;63.40;;;;;;6196101;28;20366;-70
2023/08/29 04:48:54;;;;;;;0.40;0.40;;;22.60;63.30;;;;;;6195753;28;20121;-69
2023/08/29 04:51:55;;;;;;;0.40;0.40;;;22.60;63.40;;;;;;6195452;28;20027;-70
2023/08/29 04:54:56;;;;;;;0.35;0.32;;;22.60;63.40;;;;;;6181916;28;20022;-70
2023/08/29 04:57:57;;;;;;;0.45;0.38;;;22.60;63.40;;;;;;6201156;28;20034;-70
2023/08/29 05:00:58;;;;;;;0.35;0.30;;;22.60;63.30;;;;;;6190468;28;20049;-70
2023/08/29 05:03:59;;;;;;;0.47;0.40;;;22.60;61.10;;;;;;6192065;28;20057;-70
2023/08/29 05:07:00;;;;;;;1.85;0.75;;;22.60;61.40;;;;;;6198632;28;20018;-71
2023/08/29 05:10:00;;;;;;;2.28;0.40;;;22.60;60.80;;;;;;6209993;28;20045;-71
2023/08/29 05:13:01;;;;;;;1.42;0.50;;;22.60;60.50;;;;;;6196288;28;20026;-70
2023/08/29 05:16:03;;;;;;;3.10;0.57;;;22.60;60.30;;;;;;6194223;28;20362;-70
2023/08/29 05:19:07;;;;;;;2.13;0.40;;;22.60;60.30;;;;;;6194047;28;20041;-70
2023/08/29 05:22:08;;;;;;;1.75;0.70;;;22.60;62.00;;;;;;6197463;28;20076;-70
2023/08/29 05:25:08;;;;;;;0.70;0.50;;;22.60;62.20;;;;;;6193655;28;20466;-70
2023/08/29 05:28:10;;;;;;;0.82;0.50;;;22.60;62.30;;;;;;6193419;28;20121;-69
2023/08/29 05:31:11;;;;;;;0.85;0.50;;;22.60;62.20;;;;;;6194415;28;20039;-70
2023/08/29 05:34:11;;;;;;;0.90;0.50;;;22.60;62.30;;;;;;6199645;28;20049;-69
2023/08/29 05:37:12;;;;;;;1.42;0.50;;;22.50;62.20;;;;;;6193687;28;20022;-69
2023/08/29 05:40:12;;;;;;;0.60;0.45;;;22.50;62.20;;;;;;6200930;28;20065;-69
2023/08/29 05:43:13;;;;;;;0.65;0.50;;;22.50;62.50;;;;;;6193266;28;20050;-70
2023/08/29 05:46:14;;;;;;;1.20;0.68;;;22.50;62.20;;;;;;6201504;28;20026;-70
2023/08/29 05:49:15;;;;;;;1.10;0.70;;;22.50;61.80;;;;;;6192796;28;20034;-70
2023/08/29 05:52:16;;;;;;;2.17;0.70;;;22.50;61.90;;;;;;6191034;28;20088;-70
2023/08/29 05:55:17;;;;;;;1.98;0.70;;;22.50;61.80;;;;;;6201253;28;20512;-69
2023/08/29 05:58:18;;;;;;;2.50;0.90;;;22.50;61.80;;;;;;6192921;28;20058;-70
2023/08/29 06:01:19;;;;;;;2.38;0.80;;;22.50;61.60;;;;;;6189414;28;20038;-69
2023/08/29 06:04:19;;;;;;;1.10;0.70;;;22.50;62.10;;;;;;6194748;28;20049;-70
2023/08/29 06:07:20;;;;;;;1.63;0.70;;;22.50;61.80;;;;;;6203481;28;20037;-69
2023/08/29 06:10:21;;;;;;;2.40;0.90;;;22.50;61.70;;;;;;6195025;28;20058;-70
2023/08/29 06:13:21;;;;;;;1.02;0.60;;;22.50;61.50;;;;;;6197349;28;20117;-70
2023/08/29 06:16:22;;;;;;;1.40;0.60;;;22.50;61.70;;;;;;6200304;28;20026;-70
2023/08/29 06:19:23;;;;;;;2.60;0.90;;;22.50;61.50;;;;;;6190794;28;20104;-70
2023/08/29 06:22:24;;;;;;;2.03;1.02;;;22.50;61.20;;;;;;6208253;28;20665;-69
2023/08/29 06:25:25;;;;;;;2.10;0.80;;;22.50;61.80;;;;;;6191923;28;20432;-70
2023/08/29 06:28:26;;;;;;;2.63;0.93;;;22.50;61.20;;;;;;6199745;28;20035;-70
2023/08/29 06:31:26;;;;;;;1.85;0.73;;;22.40;61.30;;;;;;6200135;28;20481;-70
2023/08/29 06:34:27;;;;;;;1.63;0.85;;;22.50;61.40;;;;;;6199433;28;20041;-70
2023/08/29 06:37:28;;;;;;;4.13;1.02;;;22.50;61.70;;;;;;6207461;28;20025;-70
2023/08/29 06:40:29;;;;;;;1.48;0.88;;;22.40;61.40;;;;;;6200913;28;20092;-69
2023/08/29 06:43:29;;;;;;;2.38;1.10;;;22.50;60.70;;;;;;6200894;28;20023;-69
2023/08/29 06:46:30;;;;;;;2.85;1.35;;;22.50;60.70;;;;;;6200486;28;20093;-70
2023/08/29 06:49:31;;;;;;;4.63;1.30;;;22.50;60.60;;;;;;6200493;28;20393;-70
2023/08/29 06:52:31;;;;;;;4.60;1.10;;;22.50;59.60;;;;;;6200709;28;20041;-70
2023/08/29 06:55:34;;;;;;;2.67;1.35;;;22.50;59.90;;;;;;6200530;28;20485;-70
2023/08/29 06:58:35;;;;;;;2.35;1.25;;;22.50;59.40;;;;;;6200471;28;20492;-70
2023/08/29 07:01:37;;;;;;;1.45;1.00;;;22.50;59.50;;;;;;6200505;28;20058;-70
2023/08/29 07:04:37;;;;;;;3.85;1.02;;;22.50;59.20;;;;;;6200066;28;20050;-70
2023/08/29 07:07:40;;;;;;;3.95;1.30;;;22.50;59.20;;;;;;6200609;28;20150;-70
2023/08/29 07:10:40;;;;;;;2.42;1.10;;;22.50;59.10;;;;;;6200475;28;20046;-70
2023/08/29 07:13:41;;;;;;;3.95;1.27;;;22.50;59.40;;;;;;6200890;28;20024;-70
2023/08/29 07:16:42;;;;;;;4.38;1.38;;;22.60;59.20;;;;;;6200655;28;20334;-70
2023/08/29 07:19:42;;;;;;;5.13;1.40;;;22.50;59.30;;;;;;6200563;28;20101;-70
2023/08/29 07:22:43;;;;;;;2.03;1.20;;;22.60;59.40;;;;;;6200660;28;20532;-70
2023/08/29 07:25:45;;;;;;;1.98;1.10;;;22.60;59.30;;;;;;6199177;28;20121;-70
2023/08/29 07:28:45;;;;;;;1.52;0.90;;;22.60;59.30;;;;;;6200128;28;20042;-70
2023/08/29 07:31:46;;;;;;;5.35;1.30;;;22.60;59.50;;;;;;6200325;28;20027;-70
2023/08/29 07:34:47;;;;;;;2.83;1.30;;;22.60;59.20;;;;;;6200425;28;20105;-70
2023/08/29 07:37:47;;;;;;;1.83;0.90;;;22.60;59.30;;;;;;6200006;28;20066;-69
2023/08/29 07:40:48;;;;;;;3.88;0.90;;;22.60;59.20;;;;;;6199997;28;20081;-70
2023/08/29 07:43:49;;;;;;;2.03;1.10;;;22.60;59.30;;;;;;6199955;28;20022;-70
2023/08/29 07:46:49;;;;;;;2.50;1.17;;;22.60;59.10;;;;;;6200004;28;20527;-70
2023/08/29 07:49:50;;;;;;;1.90;1.10;;;22.60;59.30;;;;;;6199724;28;20822;-70
2023/08/29 07:52:50;;;;;;;2.45;1.00;;;22.60;59.20;;;;;;6199857;28;20026;-70
2023/08/29 07:55:51;;;;;;;2.95;1.10;;;22.60;59.50;;;;;;6199613;28;20022;-70
2023/08/29 07:58:52;;;;;;;1.85;0.93;;;22.60;59.40;;;;;;6199537;28;20081;-70
2023/08/29 08:01:53;;;;;;;2.00;0.95;;;22.60;59.60;;;;;;6199418;28;20033;-70
2023/08/29 08:04:54;;;;;;;0.95;0.60;;;22.60;59.70;;;;;;6198666;28;20037;-70
2023/08/29 08:07:56;;;;;;;1.95;1.00;;;22.60;60.00;;;;;;6198057;28;20027;-70
2023/08/29 08:10:57;;;;;;;1.42;0.90;;;22.60;59.50;;;;;;6198306;28;20043;-70
2023/08/29 08:13:57;;;;;;;1.63;1.00;;;22.60;59.80;;;;;;6198112;28;20409;-70
2023/08/29 08:16:58;;;;;;;1.50;0.93;;;22.60;59.70;;;;;;6197773;28;20106;-70
2023/08/29 08:19:58;;;;;;;1.23;0.90;;;22.60;60.00;;;;;;6198170;28;20015;-70
2023/08/29 08:22:59;;;;;;;1.40;0.93;;;22.60;60.40;;;;;;6197962;28;20082;-70
2023/08/29 08:26:00;;;;;;;1.30;1.00;;;22.50;60.70;;;;;;6197534;28;20045;-70
2023/08/29 08:29:03;;;;;;;1.77;0.93;;;22.60;60.80;;;;;;6197391;28;20076;-70
2023/08/29 08:32:04;;;;;;;1.60;0.77;;;22.50;60.90;;;;;;6197440;28;20456;-70
2023/08/29 08:35:05;;;;;;;1.73;1.10;;;22.60;61.10;;;;;;6197721;28;20026;-70
2023/08/29 08:38:07;;;;;;;1.30;0.80;;;22.50;61.40;;;;;;6197426;28;20085;-70
2023/08/29 08:41:10;;;;;;;1.38;0.90;;;22.50;61.50;;;;;;6197889;28;20029;-70
2023/08/29 08:44:15;;;;;;;2.13;1.02;;;22.50;61.60;;;;;;6197209;28;20031;-71
2023/08/29 08:47:16;;;;;;;1.38;0.82;;;22.50;61.60;;;;;;6197462;28;20084;-70
2023/08/29 08:50:17;;;;;;;2.13;1.10;;;22.50;61.80;;;;;;6197236;28;20034;-70
2023/08/29 08:53:21;;;;;;;1.08;0.88;;;22.50;61.80;;;;;;6197126;28;20109;-70
2023/08/29 08:56:23;;;;;;;1.40;0.90;;;22.50;61.80;;;;;;6196746;28;20026;-70
2023/08/29 08:59:25;;;;;;;1.10;0.70;;;22.50;61.80;;;;;;6196373;28;20184;-70
2023/08/29 09:02:27;;;;;;;0.88;0.88;;;22.50;61.80;;;;;;6196661;28;20125;-70
2023/08/29 09:05:28;;;;;;;0.80;0.70;;;22.50;61.80;;;;;;6196415;28;20033;-70
2023/08/29 09:08:31;;;;;;;0.85;0.70;;;22.50;61.90;;;;;;6196413;28;20046;-70
2023/08/29 09:11:32;;;;;;;1.08;0.73;;;22.50;61.90;;;;;;6197982;28;20046;-70
2023/08/29 09:14:32;;;;;;;1.75;0.80;;;22.50;61.90;;;;;;6196636;28;20596;-70
2023/08/29 09:17:33;;;;;;;1.95;0.82;;;22.50;62.00;;;;;;6196890;28;20145;-70
2023/08/29 09:20:33;;;;;;;1.17;0.93;;;22.50;61.90;;;;;;6196563;28;20066;-70
2023/08/29 09:23:37;;;;;;;1.45;0.80;;;22.50;62.00;;;;;;6196785;28;20022;-70
2023/08/29 09:26:40;;;;;;;0.75;0.70;;;22.50;62.00;;;;;;6196649;28;20038;-70
2023/08/29 09:29:40;;;;;;;0.88;0.63;;;22.50;62.00;;;;;;6196385;28;20038;-70
2023/08/29 09:32:50;;;;;;;0.63;0.52;;;22.50;62.00;;;;;;6196613;28;20117;-70
2023/08/29 09:35:51;;;;;;;1.02;0.70;;;22.50;62.00;;;;;;6196183;28;20402;-70
2023/08/29 09:38:52;;;;;;;1.17;0.68;;;22.50;62.10;;;;;;6196357;28;20033;-71
2023/08/29 09:42:00;;;;;;;1.15;0.80;;;22.50;62.10;;;;;;6196390;28;20026;-70
2023/08/29 09:45:01;;;;;;;1.00;0.75;;;22.50;62.20;;;;;;6194634;28;20030;-70
2023/08/29 09:48:07;;;;;;;1.13;0.55;;;22.50;62.20;;;;;;6196152;28;20030;-70
2023/08/29 09:51:08;;;;;;;0.45;0.43;;;22.50;62.20;;;;;;6195865;28;20030;-70
2023/08/29 09:54:12;;;;;;;0.82;0.68;;;22.50;62.20;;;;;;6196520;28;20034;-70
2023/08/29 09:57:15;;;;;;;0.68;0.55;;;22.50;62.20;;;;;;6196148;28;20029;-71
2023/08/29 10:00:17;;;;;;;1.35;0.82;;;22.50;62.20;;;;;;6196092;28;20105;-70
2023/08/29 10:03:19;;;;;;;1.67;0.98;;;22.50;62.30;;;;;;6196474;28;20026;-70
2023/08/29 10:06:21;;;;;;;0.60;0.60;;;22.50;62.30;;;;;;6195874;28;20057;-70
2023/08/29 10:09:25;;;;;;;0.80;0.70;;;22.50;62.30;;;;;;6196017;28;20034;-70
2023/08/29 10:12:27;;;;;;;1.15;0.77;;;22.50;62.30;;;;;;6196231;28;20066;-70
2023/08/29 10:15:29;;;;;;;0.82;0.60;;;22.50;62.40;;;;;;6195908;28;20109;-70
2023/08/29 10:18:33;;;;;;;0.50;0.43;;;22.50;62.30;;;;;;6196101;28;20023;-71
2023/08/29 10:21:34;;;;;;;0.95;0.77;;;22.50;62.30;;;;;;6195868;28;20077;-70
2023/08/29 10:24:36;;;;;;;0.73;0.63;;;22.50;62.40;;;;;;6195804;28;20018;-70
2023/08/29 10:27:37;;;;;;;0.60;0.50;;;22.50;62.50;;;;;;6195634;28;20105;-70
2023/08/29 10:30:42;;;;;;;0.93;0.70;;;22.50;62.50;;;;;;6195460;28;20036;-71
2023/08/29 10:33:42;;;;;;;1.08;0.65;;;22.50;62.50;;;;;;6195550;28;20030;-70
2023/08/29 10:36:45;;;;;;;0.75;0.52;;;22.50;62.50;;;;;;6194933;28;20030;-70
2023/08/29 10:39:48;;;;;;;0.73;0.60;;;22.50;62.50;;;;;;6195612;28;20076;-70
2023/08/29 10:42:53;;;;;;;1.08;0.60;;;22.50;62.50;;;;;;6194902;28;20043;-70
2023/08/29 10:45:53;;;;;;;;;;;22.50;62.50;;;;;;6195483;28;20075;-70
2023/08/29 10:48:58;;;;;;;1.67;0.70;;;22.50;62.50;;;;;;6195112;28;19913;-70
2023/08/29 10:52:09;;;;;;;1.65;0.77;;;22.50;62.50;;;;;;6195010;28;20023;-70
2023/08/29 10:55:27;;;;;;;0.60;0.50;;;22.50;62.60;;;;;;6171483;28;20640;-70
2023/08/29 10:58:35;;;;;;;1.30;0.68;;;22.50;62.60;;;;;;6181329;28;20030;-70
2023/08/29 11:01:39;;;;;;;0.88;0.55;;;22.50;62.60;;;;;;6200335;28;20022;-71
2023/08/29 11:04:40;;;;;;;0.70;0.70;;;22.50;62.60;;;;;;6200364;28;20026;-71
2023/08/29 11:07:40;;;;;;;0.85;0.60;;;22.50;62.60;;;;;;6199484;28;20014;-70
2023/08/29 11:10:42;;;;;;;0.60;0.57;;;22.50;62.60;;;;;;6199274;28;20080;-70
2023/08/29 11:14:03;;;;;;;0.95;0.60;;;22.50;62.60;;;;;;6199722;28;20491;-71
2023/08/29 11:17:11;;;;;;;0.50;0.50;;;22.50;62.60;;;;;;6199934;28;20030;-70
2023/08/29 11:20:13;;;;;;;1.20;0.80;;;22.50;62.60;;;;;;6200186;28;20010;-70
2023/08/29 11:23:14;;;;;;;0.98;0.60;;;22.50;62.60;;;;;;6200235;28;20026;-70
2023/08/29 11:26:15;;;;;;;0.95;0.75;;;22.50;62.70;;;;;;6183492;28;20106;-70
2023/08/29 11:29:16;;;;;;;0.80;0.47;;;22.50;62.70;;;;;;6197934;28;20539;-70
2023/08/29 11:32:19;;;;;;;1.45;0.90;;;22.50;62.70;;;;;;6207441;28;20034;-70
2023/08/29 11:35:20;;;;;;;3.17;1.00;;;22.50;61.20;;;;;;6202310;28;20033;-70
2023/08/29 11:38:29;;;;;;;0.88;0.60;;;22.50;60.70;;;;;;6196091;28;20035;-70
2023/08/29 11:41:30;;;;;;;0.57;0.50;;;22.50;61.20;;;;;;6197296;28;20826;-70
2023/08/29 11:44:33;;;;;;;0.73;0.60;;;22.50;61.00;;;;;;6212462;28;20077;-70
2023/08/29 11:47:34;;;;;;;2.03;0.88;;;22.50;61.90;;;;;;6197879;28;20032;-70
2023/08/29 11:50:39;;;;;;;0.95;0.77;;;22.50;61.50;;;;;;6197999;28;20030;-70
2023/08/29 11:53:39;;;;;;;;;;;22.50;62.30;;;;;;6197303;28;20030;-70
2023/08/29 11:56:40;;;;;;;0.80;0.80;;;22.50;61.50;;;;;;6199871;28;20371;-70
2023/08/29 11:59:42;;;;;;;3.10;1.10;;;22.50;61.00;;;;;;6205055;28;20110;-70
2023/08/29 12:02:43;;;;;;;1.48;1.10;;;22.50;62.20;;;;;;6203091;28;20035;-70
2023/08/29 12:05:45;;;;;;;2.25;1.10;;;22.50;62.20;;;;;;6196756;28;20034;-70
2023/08/29 12:08:46;;;;;;;2.72;1.40;;;22.50;61.60;;;;;;6197139;28;20385;-69
2023/08/29 12:11:47;;;;;;;3.90;1.13;;;22.50;62.20;;;;;;6195149;28;20050;-70
2023/08/29 12:14:51;;;;;;;2.85;1.77;;;22.50;61.90;;;;;;6194582;28;20030;-69
2023/08/29 12:17:54;;;;;;;2.33;1.50;;;22.50;60.80;;;;;;6211342;28;20084;-70
2023/08/29 12:21:15;;;;;;;2.53;1.40;;;22.50;61.60;;;;;;6193904;28;20484;-70
2023/08/29 12:24:16;;;;;;;2.78;1.50;;;22.40;61.80;;;;;;6194657;28;20068;-69
2023/08/29 12:27:16;;;;;;;1.55;1.25;;;22.50;61.70;;;;;;6202623;28;20489;-69
2023/08/29 12:30:17;;;;;;;3.05;1.38;;;22.40;61.80;;;;;;6195318;28;20093;-69
2023/08/29 12:33:19;;;;;;;2.95;1.60;;;22.40;62.00;;;;;;6203638;28;20026;-70
2023/08/29 12:36:19;;;;;;;1.95;1.50;;;22.40;62.00;;;;;;6197023;28;20034;-70
2023/08/29 12:39:20;;;;;;;1.75;1.50;;;22.40;61.30;;;;;;6203001;28;20030;-70
2023/08/29 12:42:21;;;;;;;1.75;1.38;;;22.50;61.30;;;;;;6194831;28;20027;-69
2023/08/29 12:45:21;;;;;;;1.80;1.42;;;22.50;60.50;;;;;;6194107;28;20030;-70
2023/08/29 12:48:22;;;;;;;2.97;1.65;;;22.50;61.30;;;;;;6210938;28;20036;-70
2023/08/29 12:51:23;;;;;;;1.88;1.45;;;22.40;61.60;;;;;;6194752;28;20022;-69
2023/08/29 12:54:23;;;;;;;1.80;1.45;;;22.50;61.40;;;;;;6186374;28;20141;-70
2023/08/29 12:57:24;;;;;;;2.50;1.52;;;22.40;60.80;;;;;;6194105;28;20057;-70
2023/08/29 13:00:25;;;;;;;2.60;1.70;;;22.40;61.20;;;;;;6194477;28;20027;-70
2023/08/29 13:03:25;;;;;;;2.67;1.60;;;22.40;61.50;;;;;;6202252;28;20026;-68
2023/08/29 13:06:27;;;;;;;1.98;1.67;;;22.40;61.50;;;;;;6202177;28;20034;-70
2023/08/29 13:09:27;;;;;;;2.58;1.98;;;22.40;61.30;;;;;;6201752;28;20101;-70
2023/08/29 13:12:28;;;;;;;2.72;1.90;;;22.40;61.20;;;;;;6194719;28;20109;-70
2023/08/29 13:15:29;;;;;;;3.35;1.95;;;22.40;62.00;;;;;;6201979;28;20033;-70
2023/08/29 13:18:29;;;;;;;3.53;2.20;;;22.40;61.40;;;;;;6194168;28;20030;-70
2023/08/29 13:21:30;;;;;;;2.88;2.00;;;22.40;61.60;;;;;;6193121;28;20032;-69
2023/08/29 13:24:31;;;;;;;2.38;1.80;;;22.40;61.40;;;;;;6193268;28;20093;-69
2023/08/29 13:27:33;;;;;;;2.75;1.70;;;22.40;60.80;;;;;;6193689;28;20049;-69
2023/08/29 13:30:33;;;;;;;3.35;2.20;;;22.40;61.10;;;;;;6193983;28;19914;-70
2023/08/29 13:33:34;;;;;;;3.58;2.15;;;22.40;61.30;;;;;;6193156;28;20049;-70
2023/08/29 13:36:35;;;;;;;2.88;2.10;;;22.40;61.30;;;;;;6193721;28;20101;-70
2023/08/29 13:39:36;;;;;;;2.47;2.22;;;22.40;61.30;;;;;;6201760;28;20024;-70
2023/08/29 13:42:37;;;;;;;2.88;2.20;;;22.40;60.20;;;;;;6195431;28;20026;-69
2023/08/29 13:45:37;;;;;;;2.13;1.90;;;22.40;60.80;;;;;;6203230;28;20049;-70
2023/08/29 13:48:38;;;;;;;2.13;1.85;;;22.40;61.00;;;;;;6193345;28;20467;-70
2023/08/29 13:51:39;;;;;;;3.33;2.45;;;22.40;60.90;;;;;;6193685;28;20143;-70
2023/08/29 13:54:39;;;;;;;2.65;1.98;;;22.40;61.00;;;;;;6209203;28;20489;-70
2023/08/29 13:57:40;;;;;;;3.15;2.38;;;22.40;60.90;;;;;;6201286;28;20029;-70
2023/08/29 14:00:41;;;;;;;4.13;2.22;;;22.40;61.00;;;;;;6192055;28;20436;-70
2023/08/29 14:03:42;;;;;;;2.00;1.80;;;22.40;61.00;;;;;;6200801;28;20255;-70
2023/08/29 14:06:43;;;;;;;2.40;1.90;;;22.40;61.30;;;;;;6193499;28;20030;-69
2023/08/29 14:09:43;;;;;;;3.25;2.13;;;22.40;60.90;;;;;;6201031;28;20069;-70
2023/08/29 14:12:44;;;;;;;2.28;1.60;;;22.40;60.80;;;;;;6192618;28;20041;-69
2023/08/29 14:15:45;;;;;;;3.45;1.98;;;22.40;60.50;;;;;;6192778;28;20492;-70
2023/08/29 14:18:46;;;;;;;2.60;1.88;;;22.40;60.50;;;;;;6196077;28;20030;-70
2023/08/29 14:21:48;;;;;;;2.95;1.80;;;22.40;61.80;;;;;;6195514;28;20029;-70
2023/08/29 14:24:48;;;;;;;2.13;1.70;;;22.40;60.80;;;;;;6195573;28;20109;-69
2023/08/29 14:27:49;;;;;;;3.78;2.03;;;22.40;60.90;;;;;;6205031;28;20026;-70
2023/08/29 14:30:49;;;;;;;4.43;1.65;;;22.40;61.00;;;;;;6192342;28;20035;-70
2023/08/29 14:33:51;;;;;;;2.58;1.45;;;22.40;61.20;;;;;;6193612;28;20026;-69
2023/08/29 14:36:52;;;;;;;3.25;1.90;;;22.40;60.90;;;;;;6197252;28;20030;-70
2023/08/29 14:39:52;;;;;;;2.67;1.50;;;22.40;60.80;;;;;;6183509;28;20045;-70
2023/08/29 14:42:53;;;;;;;3.00;1.80;;;22.40;61.00;;;;;;6188678;28;20489;-70
2023/08/29 14:45:57;;;;;;;4.25;1.98;;;22.40;60.70;;;;;;6200850;28;20428;-70
2023/08/29 14:48:57;;;;;;;2.72;1.77;;;22.40;61.00;;;;;;6181261;28;20035;-72
2023/08/29 14:51:58;;;;;;;2.35;1.60;;;22.40;60.90;;;;;;6206524;28;20045;-72
2023/08/29 14:54:58;;;;;;;5.00;1.80;;;22.50;60.50;;;;;;6199883;28;20034;-73
2023/08/29 14:57:59;;;;;;;3.65;1.85;;;22.50;61.00;;;;;;6196835;28;20057;-71
2023/08/29 15:01:00;;;;;;;2.42;1.52;;;22.50;61.10;;;;;;6201977;28;20017;-72
2023/08/29 15:04:01;;;;;;;2.92;1.77;;;22.40;61.00;;;;;;6210641;28;20389;-72
2023/08/29 15:07:02;;;;;;;3.35;1.50;;;22.40;61.30;;;;;;6199728;28;20058;-72
2023/08/29 15:10:03;;;;;;;1.55;1.33;;;22.40;61.30;;;;;;6196046;28;20382;-72
2023/08/29 15:13:05;;;;;;;2.70;1.88;;;22.40;61.20;;;;;;6196614;28;20477;-72
2023/08/29 15:16:05;;;;;;;4.15;1.67;;;22.40;61.30;;;;;;6204079;28;20026;-72
2023/08/29 15:19:06;;;;;;;6.10;1.60;;;22.40;61.40;;;;;;6206273;28;20598;-72
2023/08/29 15:22:07;;;;;;;2.38;1.67;;;22.40;61.60;;;;;;6195845;28;20034;-73
2023/08/29 15:25:09;;;;;;;2.47;1.75;;;22.40;61.60;;;;;;6202327;28;20331;-73
2023/08/29 15:28:10;;;;;;;3.30;1.67;;;22.40;61.70;;;;;;6198362;28;20089;-73
2023/08/29 15:31:11;;;;;;;2.38;1.52;;;22.40;61.80;;;;;;6195362;28;20512;-72
2023/08/29 15:34:11;;;;;;;2.78;1.55;;;22.40;61.80;;;;;;6196013;28;20023;-72
2023/08/29 15:37:12;;;;;;;1.98;1.42;;;22.40;61.80;;;;;;6197962;28;20418;-72
2023/08/29 15:40:12;;;;;;;2.58;1.40;;;22.40;61.80;;;;;;6204785;28;20022;-72
2023/08/29 15:43:14;;;;;;;3.35;1.45;;;22.40;62.00;;;;;;6182145;28;20512;-71
2023/08/29 15:46:15;;;;;;;3.25;1.30;;;22.40;62.00;;;;;;6211406;28;20042;-72